createdAt,value
2018-12-25T00:03:05.650Z,2.7
2018-12-25T00:08:05.349Z,2.7
2018-12-25T00:12:27.639Z,2.6
2018-12-25T00:17:28.124Z,2.5
2018-12-25T00:22:28.174Z,2.4
2018-12-25T00:27:27.460Z,2.3
2018-12-25T00:32:31.288Z,2.4
2018-12-25T00:37:27.541Z,2.4
2018-12-25T00:42:27.993Z,2.4
2018-12-25T00:47:27.979Z,2.3
2018-12-25T00:52:28.051Z,2.4
2018-12-25T00:57:27.486Z,2.4
2018-12-25T01:02:28.619Z,2.5
2018-12-25T01:07:28.008Z,2.5
2018-12-25T01:12:28.445Z,2.4
2018-12-25T01:17:27.745Z,2.5
2018-12-25T01:22:27.790Z,2.5
2018-12-25T01:27:27.713Z,2.6
2018-12-25T01:32:28.277Z,2.7
2018-12-25T01:37:27.845Z,2.9
2018-12-25T01:42:28.458Z,2.9
2018-12-25T01:47:27.981Z,3.0
2018-12-25T01:52:27.766Z,3.0
2018-12-25T01:57:28.433Z,2.9
2018-12-25T02:02:27.659Z,2.9
2018-12-25T02:07:30.204Z,3.0
2018-12-25T02:12:28.259Z,3.1
2018-12-25T02:17:27.715Z,3.0
2018-12-25T02:22:28.071Z,3.0
2018-12-25T02:27:27.350Z,3.0
2018-12-25T02:32:27.585Z,3.0
2018-12-25T02:37:28.165Z,3.0
2018-12-25T02:42:28.502Z,2.9
2018-12-25T02:47:27.621Z,2.8
2018-12-25T02:52:27.790Z,2.8
2018-12-25T02:57:27.832Z,2.8
2018-12-25T03:02:27.793Z,2.9
2018-12-25T03:07:27.812Z,2.8
2018-12-25T03:12:28.051Z,2.8
2018-12-25T03:17:28.842Z,2.8
2018-12-25T03:22:27.740Z,2.6
2018-12-25T03:27:27.592Z,2.6
2018-12-25T03:32:28.370Z,2.3
2018-12-25T03:37:27.299Z,1.7
2018-12-25T03:42:28.150Z,1.7
2018-12-25T03:47:27.765Z,1.7
2018-12-25T03:52:27.744Z,1.6
2018-12-25T03:57:27.384Z,1.5
2018-12-25T04:02:28.419Z,1.4
2018-12-25T04:07:28.391Z,1.3
2018-12-25T04:12:27.380Z,1.1
2018-12-25T04:17:29.133Z,1.0
2018-12-25T04:22:28.131Z,0.9
2018-12-25T04:27:28.518Z,0.8
2018-12-25T04:32:28.800Z,0.7
2018-12-25T04:37:27.880Z,0.5
2018-12-25T04:42:28.256Z,0.5
2018-12-25T04:47:27.649Z,0.4
2018-12-25T04:52:29.018Z,0.4
2018-12-25T04:57:27.719Z,0.3
2018-12-25T05:02:27.729Z,0.3
2018-12-25T05:07:28.222Z,0.4
2018-12-25T05:12:28.593Z,0.3
2018-12-25T05:17:28.220Z,0.7
2018-12-25T05:22:28.204Z,0.7
2018-12-25T05:27:28.396Z,0.9
2018-12-25T05:32:27.565Z,0.9
2018-12-25T05:37:27.423Z,1.1
2018-12-25T05:42:28.655Z,1.2
2018-12-25T05:47:28.783Z,1.3
2018-12-25T05:52:27.882Z,1.2
2018-12-25T05:57:27.193Z,1.1
2018-12-25T06:02:28.369Z,1.2
2018-12-25T06:07:28.928Z,1.3
2018-12-25T06:12:28.090Z,1.5
2018-12-25T06:17:28.836Z,1.5
2018-12-25T06:22:28.482Z,1.6
2018-12-25T06:27:28.269Z,1.6
2018-12-25T06:32:28.338Z,1.7
2018-12-25T06:37:27.772Z,1.9
2018-12-25T06:42:28.738Z,1.9
2018-12-25T06:47:28.823Z,1.9
2018-12-25T06:52:28.287Z,1.9
2018-12-25T06:57:29.237Z,2.0
2018-12-25T07:02:28.344Z,2.1
2018-12-25T07:07:28.988Z,2.1
2018-12-25T07:12:28.938Z,2.0
2018-12-25T07:17:29.503Z,2.0
2018-12-25T07:22:28.241Z,1.9
2018-12-25T07:27:29.685Z,1.7
2018-12-25T07:32:28.484Z,1.7
2018-12-25T07:37:28.119Z,1.7
2018-12-25T07:42:27.889Z,1.8
2018-12-25T07:47:29.375Z,1.7
2018-12-25T07:52:28.126Z,1.6
2018-12-25T07:57:27.888Z,1.7
2018-12-25T08:02:28.480Z,1.8
2018-12-25T08:07:29.088Z,1.8
2018-12-25T08:12:29.075Z,1.8
2018-12-25T08:17:28.903Z,1.9
2018-12-25T08:22:28.125Z,2.0
2018-12-25T08:27:28.683Z,1.9
2018-12-25T08:32:28.380Z,1.8
2018-12-25T08:37:28.593Z,1.8
2018-12-25T08:42:29.264Z,2.0
2018-12-25T08:47:29.043Z,2.0
2018-12-25T08:52:28.563Z,2.1
2018-12-25T08:57:28.491Z,2.3
2018-12-25T09:02:28.620Z,2.3
2018-12-25T09:07:28.456Z,2.4
2018-12-25T09:12:28.572Z,2.4
2018-12-25T09:17:29.147Z,2.4
2018-12-25T09:22:29.003Z,2.4
2018-12-25T09:27:28.735Z,2.2
2018-12-25T09:32:29.044Z,2.1
2018-12-25T09:37:28.168Z,2.3
2018-12-25T09:42:28.590Z,2.7
2018-12-25T09:47:29.024Z,2.8
2018-12-25T09:52:28.229Z,2.8
2018-12-25T09:57:28.997Z,2.8
2018-12-25T10:02:28.585Z,2.7
2018-12-25T10:07:27.657Z,2.8
2018-12-25T10:12:28.172Z,3.0
2018-12-25T10:17:28.720Z,3.0
2018-12-25T10:22:28.036Z,3.2
2018-12-25T10:27:29.063Z,3.3
2018-12-25T10:32:29.012Z,3.3
2018-12-25T10:37:28.690Z,3.2
2018-12-25T10:42:28.160Z,3.4
2018-12-25T10:47:28.708Z,3.7
2018-12-25T10:52:29.064Z,3.7
2018-12-25T10:57:28.351Z,3.5
2018-12-25T11:02:28.967Z,3.4
2018-12-25T11:07:28.732Z,3.3
2018-12-25T11:12:29.107Z,3.3
2018-12-25T11:17:29.310Z,3.2
2018-12-25T11:22:28.453Z,3.3
2018-12-25T11:27:28.248Z,3.3
2018-12-25T11:32:28.649Z,3.4
2018-12-25T11:37:29.947Z,3.5
2018-12-25T11:42:28.692Z,3.6
2018-12-25T11:47:28.163Z,3.4
2018-12-25T11:52:28.308Z,3.4
2018-12-25T11:57:27.865Z,3.4
2018-12-25T12:02:28.732Z,3.6
2018-12-25T12:07:28.488Z,3.7
2018-12-25T12:12:29.045Z,3.5
2018-12-25T12:17:28.202Z,3.4
2018-12-25T12:22:28.074Z,3.6
2018-12-25T12:27:28.162Z,3.4
2018-12-25T12:32:28.678Z,3.3
2018-12-25T12:37:29.238Z,3.2
2018-12-25T12:42:29.866Z,3.2
2018-12-25T12:47:28.922Z,3.4
2018-12-25T12:52:28.760Z,3.4
2018-12-25T12:57:28.531Z,3.5
2018-12-25T13:02:28.136Z,3.5
2018-12-25T13:07:28.471Z,3.3
2018-12-25T13:12:28.954Z,3.3
2018-12-25T13:17:28.495Z,3.5
2018-12-25T13:22:28.319Z,3.6
2018-12-25T13:27:29.239Z,3.5
2018-12-25T13:32:28.727Z,3.7
2018-12-25T13:37:29.241Z,3.5
2018-12-25T13:42:27.948Z,3.6
2018-12-25T13:47:29.554Z,3.5
2018-12-25T13:52:28.070Z,3.7
2018-12-25T13:57:28.733Z,3.7
2018-12-25T14:02:28.759Z,3.6
2018-12-25T14:07:28.750Z,3.7
2018-12-25T14:12:27.876Z,3.6
2018-12-25T14:17:29.044Z,3.5
2018-12-25T14:22:28.540Z,3.5
2018-12-25T14:27:28.626Z,3.4
2018-12-25T14:32:27.942Z,3.3
2018-12-25T14:37:29.884Z,3.3
2018-12-25T14:42:28.333Z,3.3
2018-12-25T14:47:28.821Z,3.1
2018-12-25T14:52:28.403Z,3.1
2018-12-25T14:57:28.450Z,3.1
2018-12-25T15:02:29.124Z,3.1
2018-12-25T15:07:28.841Z,3.2
2018-12-25T15:12:28.656Z,3.1
2018-12-25T15:17:29.012Z,3.1
2018-12-25T15:22:28.159Z,3.1
2018-12-25T15:27:28.777Z,3.1
2018-12-25T15:32:29.116Z,3.1
2018-12-25T15:37:28.182Z,3.0
2018-12-25T15:42:28.600Z,2.9
2018-12-25T15:47:28.327Z,2.9
2018-12-25T15:52:28.014Z,2.9
2018-12-25T15:57:28.745Z,2.9
2018-12-25T16:02:27.881Z,2.9
2018-12-25T16:07:28.669Z,2.9
2018-12-25T16:12:27.623Z,2.8
2018-12-25T16:17:28.129Z,2.5
2018-12-25T16:22:28.512Z,2.2
2018-12-25T16:27:28.846Z,2.2
2018-12-25T16:32:27.930Z,2.1
2018-12-25T16:37:27.375Z,2.0
2018-12-25T16:42:27.826Z,1.8
2018-12-25T16:47:28.107Z,1.8
2018-12-25T16:52:28.070Z,1.7
2018-12-25T16:57:27.526Z,1.8
2018-12-25T17:02:28.164Z,1.8
2018-12-25T17:07:28.961Z,1.9
2018-12-25T17:12:27.936Z,2.0
2018-12-25T17:17:28.128Z,2.0
2018-12-25T17:22:28.122Z,2.0
2018-12-25T17:27:28.291Z,2.0
2018-12-25T17:32:28.754Z,2.0
2018-12-25T17:37:29.501Z,2.0
2018-12-25T17:42:27.691Z,1.8
2018-12-25T17:47:28.782Z,1.7
2018-12-25T17:52:27.959Z,1.7
2018-12-25T17:57:28.038Z,1.9
2018-12-25T18:02:28.245Z,1.8
2018-12-25T18:07:28.134Z,1.9
2018-12-25T18:12:28.534Z,1.9
2018-12-25T18:17:28.197Z,1.9
2018-12-25T18:22:28.059Z,1.9
2018-12-25T18:27:27.727Z,1.8
2018-12-25T18:32:28.152Z,1.9
2018-12-25T18:37:28.091Z,2.0
2018-12-25T18:42:28.921Z,1.9
2018-12-25T18:47:28.170Z,1.9
2018-12-25T18:52:27.926Z,1.9
2018-12-25T18:57:27.714Z,2.0
2018-12-25T19:02:28.059Z,1.9
2018-12-25T19:07:27.682Z,2.0
2018-12-25T19:12:28.247Z,2.0
2018-12-25T19:17:28.212Z,2.0
2018-12-25T19:22:27.672Z,1.8
2018-12-25T19:27:27.821Z,1.8
2018-12-25T19:32:27.890Z,1.7
2018-12-25T19:37:27.860Z,1.7
2018-12-25T19:42:27.793Z,1.6
2018-12-25T19:47:27.888Z,1.6
2018-12-25T19:52:27.875Z,1.4
2018-12-25T19:57:27.743Z,1.3
2018-12-25T20:02:27.639Z,1.3
2018-12-25T20:07:28.122Z,1.2
2018-12-25T20:12:28.650Z,1.2
2018-12-25T20:17:27.812Z,1.3
2018-12-25T20:22:29.300Z,1.4
2018-12-25T20:27:27.826Z,1.4
2018-12-25T20:32:28.892Z,1.4
2018-12-25T20:37:28.614Z,1.3
2018-12-25T20:42:28.590Z,1.2
2018-12-25T20:47:28.556Z,1.2
2018-12-25T20:52:28.457Z,1.2
2018-12-25T20:57:28.023Z,1.2
2018-12-25T21:02:27.987Z,1.1
2018-12-25T21:07:28.268Z,1.1
2018-12-25T21:12:27.552Z,1.1
2018-12-25T21:17:27.962Z,1.1
2018-12-25T21:22:30.315Z,1.1
2018-12-25T21:27:28.428Z,1.0
2018-12-25T21:32:28.084Z,1.0
2018-12-25T21:37:28.509Z,1.0
2018-12-25T21:42:28.943Z,1.0
2018-12-25T21:47:28.142Z,1.0
2018-12-25T21:52:27.694Z,1.1
2018-12-25T21:57:28.074Z,1.1
2018-12-25T22:02:27.797Z,1.1
2018-12-25T22:07:27.799Z,1.1
2018-12-25T22:12:27.516Z,1.2
2018-12-25T22:17:29.232Z,1.2
2018-12-25T22:22:27.919Z,1.5
2018-12-25T22:27:28.688Z,1.6
2018-12-25T22:32:27.921Z,1.5
2018-12-25T22:37:27.901Z,1.6
2018-12-25T22:42:27.815Z,1.5
2018-12-25T22:47:27.496Z,1.5
2018-12-25T22:52:28.178Z,1.5
2018-12-25T22:57:27.943Z,1.4
2018-12-25T23:02:27.974Z,1.4
2018-12-25T23:07:28.002Z,1.4
2018-12-25T23:12:27.283Z,1.4
2018-12-25T23:22:41.927Z,1.6
2018-12-25T23:27:41.098Z,1.6
2018-12-25T23:32:42.076Z,1.7
2018-12-25T23:37:41.119Z,1.6
2018-12-25T23:42:41.595Z,1.6
2018-12-25T23:47:41.046Z,1.6
2018-12-25T23:52:40.677Z,1.6
2018-12-25T23:57:40.713Z,1.7
